sensor_id;sensor_type;location;lat;lon;timestamp;pressure;altitude;pressure_sealevel;temperature;humidity
16451;BME280;12243;42.708;23.310;2023-04-26T00:01:34;94106.25;;;10.01;100.00
16451;BME280;12243;42.708;23.310;2023-04-26T00:04:03;94099.59;;;9.89;100.00
16451;BME280;12243;42.708;23.310;2023-04-26T00:06:30;94095.66;;;9.85;100.00
16451;BME280;12243;42.708;23.310;2023-04-26T00:08:57;94090.47;;;9.85;100.00
16451;BME280;12243;42.708;23.310;2023-04-26T00:11:24;94088.53;;;9.87;100.00
16451;BME280;12243;42.708;23.310;2023-04-26T00:13:51;94091.03;;;9.79;100.00
16451;BME280;12243;42.708;23.310;2023-04-26T00:16:18;94083.16;;;9.71;100.00
16451;BME280;12243;42.708;23.310;2023-04-26T00:18:45;94073.63;;;9.62;100.00
16451;BME280;12243;42.708;23.310;2023-04-26T00:21:15;94071.84;;;9.62;100.00
16451;BME280;12243;42.708;23.310;2023-04-26T00:23:42;94063.50;;;9.59;100.00
16451;BME280;12243;42.708;23.310;2023-04-26T00:26:09;94068.78;;;9.49;100.00
16451;BME280;12243;42.708;23.310;2023-04-26T00:28:37;94073.47;;;9.45;100.00
16451;BME280;12243;42.708;23.310;2023-04-26T00:31:04;94071.28;;;9.41;100.00
16451;BME280;12243;42.708;23.310;2023-04-26T00:33:31;94072.97;;;9.32;100.00
16451;BME280;12243;42.708;23.310;2023-04-26T00:35:58;94068.06;;;9.29;100.00
16451;BME280;12243;42.708;23.310;2023-04-26T00:38:26;94062.84;;;9.29;100.00
16451;BME280;12243;42.708;23.310;2023-04-26T00:40:53;94062.84;;;9.29;100.00
16451;BME280;12243;42.708;23.310;2023-04-26T00:43:20;94057.94;;;9.26;100.00
16451;BME280;12243;42.708;23.310;2023-04-26T00:45:48;94063.13;;;9.26;100.00
16451;BME280;12243;42.708;23.310;2023-04-26T00:48:16;94065.06;;;9.24;100.00
16451;BME280;12243;42.708;23.310;2023-04-26T00:50:44;94064.78;;;9.27;100.00
16451;BME280;12243;42.708;23.310;2023-04-26T00:53:13;94066.03;;;9.23;100.00
16451;BME280;12243;42.708;23.310;2023-04-26T00:55:42;94061.25;;;9.18;100.00
16451;BME280;12243;42.708;23.310;2023-04-26T00:58:10;94059.63;;;9.17;100.00
16451;BME280;12243;42.708;23.310;2023-04-26T01:00:37;94067.56;;;9.16;100.00
16451;BME280;12243;42.708;23.310;2023-04-26T01:03:04;94063.06;;;9.18;100.00
16451;BME280;12243;42.708;23.310;2023-04-26T01:05:31;94065.38;;;9.21;100.00
16451;BME280;12243;42.708;23.310;2023-04-26T01:07:58;94071.38;;;9.21;100.00
16451;BME280;12243;42.708;23.310;2023-04-26T01:10:30;94071.66;;;9.18;100.00
16451;BME280;12243;42.708;23.310;2023-04-26T01:13:00;94076.03;;;9.18;100.00
16451;BME280;12243;42.708;23.310;2023-04-26T01:15:28;94075.75;;;9.21;100.00
16451;BME280;12243;42.708;23.310;2023-04-26T01:17:55;94073.16;;;9.21;100.00
16451;BME280;12243;42.708;23.310;2023-04-26T01:20:22;94076.31;;;9.15;100.00
16451;BME280;12243;42.708;23.310;2023-04-26T01:22:52;94064.06;;;9.07;100.00
16451;BME280;12243;42.708;23.310;2023-04-26T01:25:20;94064.63;;;9.01;100.00
16451;BME280;12243;42.708;23.310;2023-04-26T01:27:47;94052.59;;;9.00;100.00
16451;BME280;12243;42.708;23.310;2023-04-26T01:30:14;94049.16;;;8.99;100.00
16451;BME280;12243;42.708;23.310;2023-04-26T01:32:41;94053.78;;;9.05;100.00
16451;BME280;12243;42.708;23.310;2023-04-26T01:35:09;94061.00;;;9.12;100.00
16451;BME280;12243;42.708;23.310;2023-04-26T01:37:36;94067.03;;;9.12;100.00
16451;BME280;12243;42.708;23.310;2023-04-26T01:40:06;94058.03;;;9.06;100.00
16451;BME280;12243;42.708;23.310;2023-04-26T01:42:36;94058.69;;;9.09;100.00
16451;BME280;12243;42.708;23.310;2023-04-26T01:45:03;94056.38;;;9.05;100.00
16451;BME280;12243;42.708;23.310;2023-04-26T01:47:51;94070.63;;;9.01;100.00
16451;BME280;12243;42.708;23.310;2023-04-26T01:50:18;94071.44;;;9.02;100.00
16451;BME280;12243;42.708;23.310;2023-04-26T01:52:45;94076.88;;;9.09;100.00
16451;BME280;12243;42.708;23.310;2023-04-26T01:55:13;94067.28;;;9.19;100.00
16451;BME280;12243;42.708;23.310;2023-04-26T01:57:40;94065.06;;;9.24;100.00
16451;BME280;12243;42.708;23.310;2023-04-26T02:00:08;94067.00;;;9.22;100.00
16451;BME280;12243;42.708;23.310;2023-04-26T02:02:41;94060.97;;;9.21;100.00
16451;BME280;12243;42.708;23.310;2023-04-26T02:05:10;94062.38;;;9.16;100.00
16451;BME280;12243;42.708;23.310;2023-04-26T02:07:37;94049.25;;;9.17;100.00
16451;BME280;12243;42.708;23.310;2023-04-26T02:10:06;94048.59;;;9.05;100.00
16451;BME280;12243;42.708;23.310;2023-04-26T02:12:34;94048.78;;;8.94;100.00
16451;BME280;12243;42.708;23.310;2023-04-26T02:15:01;94048.69;;;8.86;100.00
16451;BME280;12243;42.708;23.310;2023-04-26T02:17:29;94046.47;;;8.81;100.00
16451;BME280;12243;42.708;23.310;2023-04-26T02:19:57;94042.00;;;8.74;100.00
16451;BME280;12243;42.708;23.310;2023-04-26T02:22:24;94046.00;;;8.68;100.00
16451;BME280;12243;42.708;23.310;2023-04-26T02:24:51;94041.75;;;8.57;100.00
16451;BME280;12243;42.708;23.310;2023-04-26T02:27:18;94044.34;;;8.57;100.00
16451;BME280;12243;42.708;23.310;2023-04-26T02:29:46;94048.34;;;8.62;100.00
16451;BME280;12243;42.708;23.310;2023-04-26T02:32:13;94039.84;;;8.69;100.00
16451;BME280;12243;42.708;23.310;2023-04-26T02:34:43;94038.16;;;8.78;100.00
16451;BME280;12243;42.708;23.310;2023-04-26T02:37:10;94046.38;;;8.73;100.00
16451;BME280;12243;42.708;23.310;2023-04-26T02:39:37;94053.81;;;8.58;100.00
16451;BME280;12243;42.708;23.310;2023-04-26T02:42:07;94051.47;;;8.65;100.00
16451;BME280;12243;42.708;23.310;2023-04-26T02:44:34;94066.88;;;8.67;100.00
16451;BME280;12243;42.708;23.310;2023-04-26T02:47:03;94058.66;;;8.81;100.00
16451;BME280;12243;42.708;23.310;2023-04-26T02:49:30;94058.97;;;8.68;100.00
16451;BME280;12243;42.708;23.310;2023-04-26T02:51:58;94054.16;;;8.83;100.00
16451;BME280;12243;42.708;23.310;2023-04-26T02:54:25;94041.44;;;8.80;100.00
16451;BME280;12243;42.708;23.310;2023-04-26T02:56:53;94030.28;;;8.70;100.00
16451;BME280;12243;42.708;23.310;2023-04-26T02:59:20;94033.94;;;8.77;100.00
16451;BME280;12243;42.708;23.310;2023-04-26T03:01:50;94025.91;;;8.70;100.00
16451;BME280;12243;42.708;23.310;2023-04-26T03:04:19;94028.06;;;8.75;100.00
16451;BME280;12243;42.708;23.310;2023-04-26T03:06:45;94030.81;;;8.73;100.00
16451;BME280;12243;42.708;23.310;2023-04-26T03:09:13;94033.16;;;8.67;100.00
16451;BME280;12243;42.708;23.310;2023-04-26T03:11:40;94031.25;;;8.69;100.00
16451;BME280;12243;42.708;23.310;2023-04-26T03:14:07;94046.09;;;8.76;100.00
16451;BME280;12243;42.708;23.310;2023-04-26T03:16:40;94031.44;;;8.85;100.00
16451;BME280;12243;42.708;23.310;2023-04-26T03:19:08;94032.97;;;8.78;100.00
16451;BME280;12243;42.708;23.310;2023-04-26T03:21:38;94030.44;;;8.68;100.00
16451;BME280;12243;42.708;23.310;2023-04-26T03:24:05;94026.16;;;8.77;100.00
16451;BME280;12243;42.708;23.310;2023-04-26T03:26:32;94022.59;;;8.78;100.00
16451;BME280;12243;42.708;23.310;2023-04-26T03:28:59;94021.25;;;8.74;100.00
16451;BME280;12243;42.708;23.310;2023-04-26T03:31:27;94024.81;;;8.73;100.00
16451;BME280;12243;42.708;23.310;2023-04-26T03:33:54;94024.63;;;8.84;100.00
16451;BME280;12243;42.708;23.310;2023-04-26T03:36:21;94028.84;;;8.85;100.00
16451;BME280;12243;42.708;23.310;2023-04-26T03:38:49;94030.06;;;8.91;100.00
16451;BME280;12243;42.708;23.310;2023-04-26T03:41:18;94025.03;;;8.89;100.00
16451;BME280;12243;42.708;23.310;2023-04-26T03:43:45;94029.34;;;8.98;100.00
16451;BME280;12243;42.708;23.310;2023-04-26T03:46:11;94042.16;;;9.10;100.00
16451;BME280;12243;42.708;23.310;2023-04-26T03:48:38;94050.34;;;9.15;100.00
16451;BME280;12243;42.708;23.310;2023-04-26T03:51:06;94047.19;;;9.21;100.00
16451;BME280;12243;42.708;23.310;2023-04-26T03:53:33;94064.19;;;9.33;100.00
16451;BME280;12243;42.708;23.310;2023-04-26T03:56:01;94062.38;;;9.43;100.00
16451;BME280;12243;42.708;23.310;2023-04-26T03:58:29;94061.22;;;9.56;100.00
16451;BME280;12243;42.708;23.310;2023-04-26T04:00:56;94049.69;;;9.58;100.00
16451;BME280;12243;42.708;23.310;2023-04-26T04:03:23;94057.09;;;9.63;100.00
16451;BME280;12243;42.708;23.310;2023-04-26T04:05:51;94064.22;;;9.78;100.00
16451;BME280;12243;42.708;23.310;2023-04-26T04:08:18;94070.34;;;10.05;100.00
16451;BME280;12243;42.708;23.310;2023-04-26T04:10:45;94058.50;;;10.11;100.00
16451;BME280;12243;42.708;23.310;2023-04-26T04:13:13;94064.34;;;10.05;100.00
16451;BME280;12243;42.708;23.310;2023-04-26T04:15:40;94063.06;;;10.09;100.00
16451;BME280;12243;42.708;23.310;2023-04-26T04:18:08;94068.84;;;10.02;100.00
16451;BME280;12243;42.708;23.310;2023-04-26T04:20:34;94070.06;;;10.08;100.00
16451;BME280;12243;42.708;23.310;2023-04-26T04:23:01;94077.75;;;10.18;100.00
16451;BME280;12243;42.708;23.310;2023-04-26T04:25:31;94063.81;;;10.37;100.00
16451;BME280;12243;42.708;23.310;2023-04-26T04:28:01;94072.28;;;10.57;100.00
16451;BME280;12243;42.708;23.310;2023-04-26T04:30:31;94075.41;;;10.86;100.00
16451;BME280;12243;42.708;23.310;2023-04-26T04:32:59;94071.38;;;11.26;100.00
16451;BME280;12243;42.708;23.310;2023-04-26T04:35:29;94071.84;;;11.56;100.00
16451;BME280;12243;42.708;23.310;2023-04-26T04:37:59;94075.66;;;11.78;99.42
16451;BME280;12243;42.708;23.310;2023-04-26T04:40:26;94075.94;;;12.01;96.63
16451;BME280;12243;42.708;23.310;2023-04-26T04:42:54;94086.06;;;12.04;96.75
16451;BME280;12243;42.708;23.310;2023-04-26T04:45:24;94093.06;;;12.11;95.40
16451;BME280;12243;42.708;23.310;2023-04-26T04:47:54;94084.25;;;11.96;95.93
16451;BME280;12243;42.708;23.310;2023-04-26T04:50:21;94086.25;;;12.10;96.95
16451;BME280;12243;42.708;23.310;2023-04-26T04:52:49;94077.28;;;12.29;96.16
16451;BME280;12243;42.708;23.310;2023-04-26T04:55:16;94075.34;;;12.31;95.27
16451;BME280;12243;42.708;23.310;2023-04-26T04:57:43;94075.66;;;12.36;96.04
16451;BME280;12243;42.708;23.310;2023-04-26T05:00:12;94073.22;;;12.43;95.28
16451;BME280;12243;42.708;23.310;2023-04-26T05:02:50;94077.63;;;12.34;93.92
16451;BME280;12243;42.708;23.310;2023-04-26T05:05:19;94079.69;;;12.06;94.79
16451;BME280;12243;42.708;23.310;2023-04-26T05:07:46;94077.88;;;11.99;95.37
16451;BME280;12243;42.708;23.310;2023-04-26T05:10:14;94072.34;;;12.02;96.91
16451;BME280;12243;42.708;23.310;2023-04-26T05:12:40;94086.88;;;12.12;96.96
16451;BME280;12243;42.708;23.310;2023-04-26T05:15:08;94077.78;;;12.25;95.89
16451;BME280;12243;42.708;23.310;2023-04-26T05:17:36;94081.19;;;12.33;94.87
16451;BME280;12243;42.708;23.310;2023-04-26T05:20:19;94079.56;;;12.32;92.93
16451;BME280;12243;42.708;23.310;2023-04-26T05:22:46;94077.28;;;12.21;93.88
16451;BME280;12243;42.708;23.310;2023-04-26T05:25:13;94085.78;;;12.31;94.35
16451;BME280;12243;42.708;23.310;2023-04-26T05:27:41;94085.75;;;12.23;94.19
16451;BME280;12243;42.708;23.310;2023-04-26T05:30:31;94089.69;;;12.27;93.91
16451;BME280;12243;42.708;23.310;2023-04-26T05:33:34;94099.16;;;12.61;93.33
16451;BME280;12243;42.708;23.310;2023-04-26T05:36:26;94094.75;;;12.78;91.96
16451;BME280;12243;42.708;23.310;2023-04-26T05:38:53;94094.28;;;12.66;91.60
16451;BME280;12243;42.708;23.310;2023-04-26T05:41:20;94096.22;;;12.64;91.41
16451;BME280;12243;42.708;23.310;2023-04-26T05:43:48;94105.03;;;12.71;91.37
16451;BME280;12243;42.708;23.310;2023-04-26T05:46:15;94096.72;;;12.76;91.46
16451;BME280;12243;42.708;23.310;2023-04-26T05:48:42;94107.97;;;12.93;90.76
16451;BME280;12243;42.708;23.310;2023-04-26T05:51:09;94103.06;;;13.06;90.11
16451;BME280;12243;42.708;23.310;2023-04-26T05:53:38;94108.44;;;13.13;90.71
16451;BME280;12243;42.708;23.310;2023-04-26T05:56:06;94107.94;;;13.33;89.84
16451;BME280;12243;42.708;23.310;2023-04-26T05:58:34;94111.19;;;13.44;89.63
16451;BME280;12243;42.708;23.310;2023-04-26T06:01:02;94100.88;;;13.50;88.59
16451;BME280;12243;42.708;23.310;2023-04-26T06:03:29;94113.28;;;13.48;88.88
16451;BME280;12243;42.708;23.310;2023-04-26T06:05:56;94114.44;;;13.46;88.27
16451;BME280;12243;42.708;23.310;2023-04-26T06:08:26;94116.44;;;13.36;89.18
16451;BME280;12243;42.708;23.310;2023-04-26T06:10:55;94114.09;;;13.49;89.66
16451;BME280;12243;42.708;23.310;2023-04-26T06:13:22;94115.06;;;13.56;88.91
16451;BME280;12243;42.708;23.310;2023-04-26T06:15:49;94114.09;;;13.57;88.83
16451;BME280;12243;42.708;23.310;2023-04-26T06:18:16;94111.06;;;13.76;88.83
16451;BME280;12243;42.708;23.310;2023-04-26T06:20:45;94118.97;;;13.68;89.54
16451;BME280;12243;42.708;23.310;2023-04-26T06:23:12;94118.31;;;13.66;89.92
16451;BME280;12243;42.708;23.310;2023-04-26T06:25:39;94116.78;;;13.80;88.82
16451;BME280;12243;42.708;23.310;2023-04-26T06:28:10;94115.94;;;14.19;88.14
16451;BME280;12243;42.708;23.310;2023-04-26T06:30:37;94111.81;;;14.56;86.12
16451;BME280;12243;42.708;23.310;2023-04-26T06:33:05;94113.34;;;15.11;83.06
16451;BME280;12243;42.708;23.310;2023-04-26T06:35:38;94111.41;;;15.57;81.99
16451;BME280;12243;42.708;23.310;2023-04-26T06:38:06;94101.13;;;15.70;76.88
16451;BME280;12243;42.708;23.310;2023-04-26T06:40:34;94101.13;;;15.70;76.28
16451;BME280;12243;42.708;23.310;2023-04-26T06:43:02;94105.44;;;15.63;74.70
16451;BME280;12243;42.708;23.310;2023-04-26T06:45:37;94107.00;;;15.05;73.43
16451;BME280;12243;42.708;23.310;2023-04-26T06:48:04;94109.19;;;14.79;74.96
16451;BME280;12243;42.708;23.310;2023-04-26T06:50:32;94115.97;;;14.42;76.34
16451;BME280;12243;42.708;23.310;2023-04-26T06:53:02;94122.94;;;14.26;76.76
16451;BME280;12243;42.708;23.310;2023-04-26T06:55:30;94115.97;;;14.42;77.61
16451;BME280;12243;42.708;23.310;2023-04-26T06:57:56;94117.88;;;14.56;76.01
16451;BME280;12243;42.708;23.310;2023-04-26T07:00:24;94117.94;;;14.40;76.50
16451;BME280;12243;42.708;23.310;2023-04-26T07:02:54;94115.19;;;14.87;74.24
16451;BME280;12243;42.708;23.310;2023-04-26T07:05:21;94131.94;;;15.01;75.00
16451;BME280;12243;42.708;23.310;2023-04-26T07:07:48;94116.06;;;15.17;74.37
16451;BME280;12243;42.708;23.310;2023-04-26T07:10:15;94106.84;;;15.07;75.71
16451;BME280;12243;42.708;23.310;2023-04-26T07:12:42;94121.66;;;14.76;74.66
16451;BME280;12243;42.708;23.310;2023-04-26T07:15:10;94126.13;;;14.91;74.95
16451;BME280;12243;42.708;23.310;2023-04-26T07:17:36;94131.03;;;15.32;73.26
16451;BME280;12243;42.708;23.310;2023-04-26T07:20:06;94123.16;;;15.61;72.38
16451;BME280;12243;42.708;23.310;2023-04-26T07:22:34;94134.38;;;15.02;72.56
16451;BME280;12243;42.708;23.310;2023-04-26T07:25:01;94130.69;;;14.51;73.79
16451;BME280;12243;42.708;23.310;2023-04-26T07:27:29;94138.31;;;14.29;74.90
16451;BME280;12243;42.708;23.310;2023-04-26T07:29:57;94128.53;;;14.23;74.82
16451;BME280;12243;42.708;23.310;2023-04-26T07:32:24;94127.19;;;14.27;73.85
16451;BME280;12243;42.708;23.310;2023-04-26T07:34:50;94128.28;;;14.64;73.70
16451;BME280;12243;42.708;23.310;2023-04-26T07:37:19;94132.63;;;14.49;71.63
16451;BME280;12243;42.708;23.310;2023-04-26T07:39:46;94130.69;;;14.51;71.98
16451;BME280;12243;42.708;23.310;2023-04-26T07:42:13;94138.66;;;14.26;73.12
16451;BME280;12243;42.708;23.310;2023-04-26T07:44:41;94135.00;;;14.04;73.01
16451;BME280;12243;42.708;23.310;2023-04-26T07:47:10;94142.34;;;14.09;73.44
16451;BME280;12243;42.708;23.310;2023-04-26T07:49:37;94139.13;;;13.99;70.78
16451;BME280;12243;42.708;23.310;2023-04-26T07:52:04;94142.06;;;13.56;71.29
16451;BME280;12243;42.708;23.310;2023-04-26T07:54:33;94154.97;;;13.58;71.03
16451;BME280;12243;42.708;23.310;2023-04-26T07:57:00;94143.22;;;13.54;71.56
16451;BME280;12243;42.708;23.310;2023-04-26T07:59:28;94147.94;;;13.58;71.89
16451;BME280;12243;42.708;23.310;2023-04-26T08:01:55;94142.41;;;13.53;71.77
16451;BME280;12243;42.708;23.310;2023-04-26T08:04:30;94153.16;;;13.58;72.60
16451;BME280;12243;42.708;23.310;2023-04-26T08:06:58;94143.66;;;13.74;72.54
16451;BME280;12243;42.708;23.310;2023-04-26T08:09:26;94141.69;;;14.07;71.57
16451;BME280;12243;42.708;23.310;2023-04-26T08:11:55;94149.69;;;13.74;71.74
16451;BME280;12243;42.708;23.310;2023-04-26T08:14:21;94148.31;;;13.87;71.82
16451;BME280;12243;42.708;23.310;2023-04-26T08:16:48;94145.38;;;13.90;71.87
16451;BME280;12243;42.708;23.310;2023-04-26T08:19:16;94136.06;;;14.18;71.86
16451;BME280;12243;42.708;23.310;2023-04-26T08:21:43;94148.84;;;14.52;70.08
16451;BME280;12243;42.708;23.310;2023-04-26T08:24:09;94151.66;;;14.51;69.92
16451;BME280;12243;42.708;23.310;2023-04-26T08:26:36;94148.69;;;14.54;69.13
16451;BME280;12243;42.708;23.310;2023-04-26T08:29:05;94141.69;;;14.38;68.20
16451;BME280;12243;42.708;23.310;2023-04-26T08:31:32;94149.56;;;14.69;68.25
16451;BME280;12243;42.708;23.310;2023-04-26T08:33:59;94140.56;;;14.64;68.68
16451;BME280;12243;42.708;23.310;2023-04-26T08:36:26;94136.97;;;14.88;67.49
16451;BME280;12243;42.708;23.310;2023-04-26T08:38:52;94141.25;;;14.89;67.26
16451;BME280;12243;42.708;23.310;2023-04-26T08:41:22;94134.34;;;14.88;66.93
16451;BME280;12243;42.708;23.310;2023-04-26T08:43:50;94134.69;;;14.85;67.03
16451;BME280;12243;42.708;23.310;2023-04-26T08:46:19;94128.63;;;14.84;66.14
16451;BME280;12243;42.708;23.310;2023-04-26T08:48:52;94133.31;;;15.12;65.26
16451;BME280;12243;42.708;23.310;2023-04-26T08:51:21;94137.41;;;15.14;64.53
16451;BME280;12243;42.708;23.310;2023-04-26T08:53:49;94138.78;;;14.87;65.55
16451;BME280;12243;42.708;23.310;2023-04-26T08:56:17;94139.31;;;14.83;65.50
16451;BME280;12243;42.708;23.310;2023-04-26T08:58:44;94137.72;;;14.73;66.36
16451;BME280;12243;42.708;23.310;2023-04-26T09:01:13;94141.59;;;14.86;65.87
16451;BME280;12243;42.708;23.310;2023-04-26T09:03:42;94139.19;;;14.76;65.98
16451;BME280;12243;42.708;23.310;2023-04-26T09:06:15;94140.94;;;14.84;65.38
16451;BME280;12243;42.708;23.310;2023-04-26T09:08:43;94144.22;;;14.86;66.32
16451;BME280;12243;42.708;23.310;2023-04-26T09:11:10;94145.91;;;15.16;64.50
16451;BME280;12243;42.708;23.310;2023-04-26T09:13:37;94148.72;;;14.92;64.15
16451;BME280;12243;42.708;23.310;2023-04-26T09:16:04;94142.09;;;15.04;64.16
16451;BME280;12243;42.708;23.310;2023-04-26T09:18:31;94141.31;;;15.33;62.71
16451;BME280;12243;42.708;23.310;2023-04-26T09:21:07;94156.38;;;15.16;62.14
16451;BME280;12243;42.708;23.310;2023-04-26T09:23:34;94150.75;;;15.05;62.43
16451;BME280;12243;42.708;23.310;2023-04-26T09:26:18;94148.38;;;14.95;63.14
16451;BME280;12243;42.708;23.310;2023-04-26T09:28:45;94138.69;;;15.18;62.55
16451;BME280;12243;42.708;23.310;2023-04-26T09:31:34;94144.50;;;15.58;60.87
16451;BME280;12243;42.708;23.310;2023-04-26T09:34:01;94145.81;;;16.07;60.41
16451;BME280;12243;42.708;23.310;2023-04-26T09:36:29;94144.91;;;16.14;60.32
16451;BME280;12243;42.708;23.310;2023-04-26T09:38:56;94138.22;;;15.82;59.29
16451;BME280;12243;42.708;23.310;2023-04-26T09:41:23;94142.03;;;15.80;58.80
16451;BME280;12243;42.708;23.310;2023-04-26T09:43:55;94148.81;;;15.74;58.47
16451;BME280;12243;42.708;23.310;2023-04-26T09:46:22;94135.91;;;15.35;59.54
16451;BME280;12243;42.708;23.310;2023-04-26T09:48:59;94127.13;;;15.42;60.70
16451;BME280;12243;42.708;23.310;2023-04-26T09:51:28;94128.94;;;15.42;59.06
16451;BME280;12243;42.708;23.310;2023-04-26T09:53:56;94133.94;;;15.52;59.24
16451;BME280;12243;42.708;23.310;2023-04-26T09:56:23;94132.16;;;15.82;58.01
16451;BME280;12243;42.708;23.310;2023-04-26T09:58:57;94137.94;;;15.92;57.29
16451;BME280;12243;42.708;23.310;2023-04-26T10:01:26;94141.72;;;16.19;55.89
16451;BME280;12243;42.708;23.310;2023-04-26T10:03:54;94133.13;;;16.10;55.11
16451;BME280;12243;42.708;23.310;2023-04-26T10:06:21;94130.31;;;16.12;54.20
16451;BME280;12243;42.708;23.310;2023-04-26T10:08:49;94136.38;;;16.12;54.00
16451;BME280;12243;42.708;23.310;2023-04-26T10:11:17;94137.19;;;16.13;53.68
16451;BME280;12243;42.708;23.310;2023-04-26T10:13:44;94127.50;;;16.13;53.26
16451;BME280;12243;42.708;23.310;2023-04-26T10:16:11;94129.59;;;16.03;53.27
16451;BME280;12243;42.708;23.310;2023-04-26T10:18:38;94124.63;;;16.08;51.99
16451;BME280;12243;42.708;23.310;2023-04-26T10:21:09;94127.28;;;15.93;51.94
16451;BME280;12243;42.708;23.310;2023-04-26T10:23:37;94126.69;;;16.13;51.98
16451;BME280;12243;42.708;23.310;2023-04-26T10:26:05;94121.75;;;16.25;52.18
16451;BME280;12243;42.708;23.310;2023-04-26T10:29:01;94115.91;;;16.23;52.52
16451;BME280;12243;42.708;23.310;2023-04-26T10:32:05;94109.59;;;16.02;53.16
16451;BME280;12243;42.708;23.310;2023-04-26T10:34:34;94121.09;;;16.01;52.40
16451;BME280;12243;42.708;23.310;2023-04-26T10:37:05;94124.84;;;16.28;51.26
16451;BME280;12243;42.708;23.310;2023-04-26T10:39:33;94114.47;;;16.63;50.16
16451;BME280;12243;42.708;23.310;2023-04-26T10:42:22;94133.88;;;16.77;48.85
16451;BME280;12243;42.708;23.310;2023-04-26T10:44:50;94116.47;;;16.97;48.41
16451;BME280;12243;42.708;23.310;2023-04-26T10:47:21;94115.13;;;17.08;46.28
16451;BME280;12243;42.708;23.310;2023-04-26T10:49:49;94135.59;;;17.34;46.69
16451;BME280;12243;42.708;23.310;2023-04-26T10:52:16;94112.84;;;16.98;46.50
16451;BME280;12243;42.708;23.310;2023-04-26T10:54:46;94106.56;;;16.99;47.21
16451;BME280;12243;42.708;23.310;2023-04-26T10:57:13;94107.97;;;17.23;46.27
16451;BME280;12243;42.708;23.310;2023-04-26T11:00:17;94100.94;;;17.02;46.12
16451;BME280;12243;42.708;23.310;2023-04-26T11:02:51;94094.88;;;17.08;46.74
16451;BME280;12243;42.708;23.310;2023-04-26T11:05:49;94104.47;;;17.44;46.74
16451;BME280;12243;42.708;23.310;2023-04-26T11:08:18;94110.44;;;17.03;45.47
16451;BME280;12243;42.708;23.310;2023-04-26T11:10:49;94106.44;;;16.86;45.89
16451;BME280;12243;42.708;23.310;2023-04-26T11:13:18;94103.53;;;16.59;46.97
16451;BME280;12243;42.708;23.310;2023-04-26T11:15:51;94110.81;;;16.21;48.03
16451;BME280;12243;42.708;23.310;2023-04-26T11:18:19;94111.91;;;16.48;48.22
16451;BME280;12243;42.708;23.310;2023-04-26T11:20:46;94102.19;;;16.63;47.06
16451;BME280;12243;42.708;23.310;2023-04-26T11:23:13;94108.50;;;16.11;48.38
16451;BME280;12243;42.708;23.310;2023-04-26T11:25:40;94111.31;;;16.31;48.17
16451;BME280;12243;42.708;23.310;2023-04-26T11:28:07;94111.94;;;16.70;48.27
16451;BME280;12243;42.708;23.310;2023-04-26T11:30:34;94112.75;;;17.13;46.79
16451;BME280;12243;42.708;23.310;2023-04-26T11:33:03;94114.97;;;16.88;46.70
16451;BME280;12243;42.708;23.310;2023-04-26T11:35:32;94115.22;;;16.93;46.68
16451;BME280;12243;42.708;23.310;2023-04-26T11:38:02;94121.19;;;17.08;46.04
16451;BME280;12243;42.708;23.310;2023-04-26T11:40:30;94108.31;;;17.13;45.34
16451;BME280;12243;42.708;23.310;2023-04-26T11:42:59;94106.31;;;17.22;45.47
16451;BME280;12243;42.708;23.310;2023-04-26T11:45:27;94101.59;;;17.39;44.82
16451;BME280;12243;42.708;23.310;2023-04-26T11:47:54;94107.53;;;17.76;44.03
16451;BME280;12243;42.708;23.310;2023-04-26T11:50:24;94108.34;;;18.18;43.00
16451;BME280;12243;42.708;23.310;2023-04-26T11:52:54;94098.69;;;18.45;42.73
16451;BME280;12243;42.708;23.310;2023-04-26T11:55:27;94107.03;;;18.55;42.43
16451;BME280;12243;42.708;23.310;2023-04-26T11:57:55;94099.34;;;18.67;42.19
16451;BME280;12243;42.708;23.310;2023-04-26T12:00:24;94109.72;;;18.07;43.54
16451;BME280;12243;42.708;23.310;2023-04-26T12:02:51;94103.25;;;17.19;44.70
16451;BME280;12243;42.708;23.310;2023-04-26T12:05:20;94107.31;;;16.93;45.96
16451;BME280;12243;42.708;23.310;2023-04-26T12:07:52;94106.81;;;16.83;46.40
16451;BME280;12243;42.708;23.310;2023-04-26T12:10:23;94098.53;;;17.07;46.48
16451;BME280;12243;42.708;23.310;2023-04-26T12:12:52;94106.69;;;17.12;45.64
16451;BME280;12243;42.708;23.310;2023-04-26T12:15:27;94102.88;;;17.22;46.21
16451;BME280;12243;42.708;23.310;2023-04-26T12:17:55;94092.63;;;17.27;45.98
16451;BME280;12243;42.708;23.310;2023-04-26T12:20:30;94117.28;;;17.26;45.12
16451;BME280;12243;42.708;23.310;2023-04-26T12:23:04;94095.34;;;17.12;45.79
16451;BME280;12243;42.708;23.310;2023-04-26T12:25:32;94099.13;;;16.81;45.56
16451;BME280;12243;42.708;23.310;2023-04-26T12:28:00;94104.03;;;16.48;46.07
16451;BME280;12243;42.708;23.310;2023-04-26T12:30:31;94094.50;;;16.26;46.67
16451;BME280;12243;42.708;23.310;2023-04-26T12:33:18;94098.50;;;16.22;46.37
16451;BME280;12243;42.708;23.310;2023-04-26T12:35:47;94100.72;;;16.39;46.57
16451;BME280;12243;42.708;23.310;2023-04-26T12:38:16;94092.47;;;16.06;48.00
16451;BME280;12243;42.708;23.310;2023-04-26T12:40:43;94091.22;;;15.87;48.26
16451;BME280;12243;42.708;23.310;2023-04-26T12:43:10;94080.00;;;16.30;47.74
16451;BME280;12243;42.708;23.310;2023-04-26T12:45:37;94098.03;;;16.54;48.11
16451;BME280;12243;42.708;23.310;2023-04-26T12:48:04;94099.75;;;16.26;48.21
16451;BME280;12243;42.708;23.310;2023-04-26T12:50:31;94096.56;;;15.79;48.02
16451;BME280;12243;42.708;23.310;2023-04-26T12:52:58;94088.59;;;15.87;47.98
16451;BME280;12243;42.708;23.310;2023-04-26T12:55:26;94090.25;;;15.74;48.02
16451;BME280;12243;42.708;23.310;2023-04-26T12:57:54;94093.03;;;15.72;47.63
16451;BME280;12243;42.708;23.310;2023-04-26T13:00:21;94092.41;;;15.55;48.44